sensor_id;sensor_type;location;lat;lon;timestamp;pressure;altitude;pressure_sealevel;temperature;humidity
7586;BME280;12459;42.646;23.292;2024-02-04T00:13:27;93935.41;;;8.10;67.37
7586;BME280;12459;42.646;23.292;2024-02-04T00:28:28;93797.72;;;7.52;68.09
7586;BME280;12459;42.646;23.292;2024-02-04T00:43:30;93905.31;;;8.30;70.00
7586;BME280;12459;42.646;23.292;2024-02-04T00:58:32;93878.63;;;8.16;70.89
7586;BME280;12459;42.646;23.292;2024-02-04T01:13:34;93950.44;;;8.92;72.40
7586;BME280;12459;42.646;23.292;2024-02-04T01:28:36;93960.34;;;8.99;73.55
7586;BME280;12459;42.646;23.292;2024-02-04T01:43:37;94001.94;;;9.53;73.24
7586;BME280;12459;42.646;23.292;2024-02-04T01:58:39;94084.03;;;9.99;73.08
7586;BME280;12459;42.646;23.292;2024-02-04T02:13:43;94038.22;;;9.62;73.05
7586;BME280;12459;42.646;23.292;2024-02-04T02:28:48;93885.91;;;8.80;72.08
7586;BME280;12459;42.646;23.292;2024-02-04T02:43:51;94022.84;;;9.98;71.91
7586;BME280;12459;42.646;23.292;2024-02-04T02:58:53;93761.16;;;8.30;70.99
7586;BME280;12459;42.646;23.292;2024-02-04T03:13:55;93822.41;;;9.30;70.06
7586;BME280;12459;42.646;23.292;2024-02-04T03:28:57;93865.91;;;9.52;71.12
7586;BME280;12459;42.646;23.292;2024-02-04T03:44:00;93773.53;;;9.26;70.79
7586;BME280;12459;42.646;23.292;2024-02-04T03:59:01;93644.84;;;8.44;70.33
7586;BME280;12459;42.646;23.292;2024-02-04T04:14:03;93964.72;;;9.98;73.95
7586;BME280;12459;42.646;23.292;2024-02-04T04:29:05;93644.47;;;8.31;73.94
7586;BME280;12459;42.646;23.292;2024-02-04T04:44:07;93795.25;;;9.42;75.09
7586;BME280;12459;42.646;23.292;2024-02-04T04:59:09;93770.97;;;8.98;72.76
7586;BME280;12459;42.646;23.292;2024-02-04T05:14:11;93627.69;;;8.23;71.84
7586;BME280;12459;42.646;23.292;2024-02-04T05:29:13;93755.69;;;8.98;70.85
7586;BME280;12459;42.646;23.292;2024-02-04T05:44:15;93776.28;;;9.08;69.68
7586;BME280;12459;42.646;23.292;2024-02-04T05:59:16;93897.38;;;10.03;70.62
7586;BME280;12459;42.646;23.292;2024-02-04T06:14:18;93707.06;;;8.34;70.28
7586;BME280;12459;42.646;23.292;2024-02-04T06:29:20;93994.47;;;10.21;71.95
7586;BME280;12459;42.646;23.292;2024-02-04T06:44:22;93987.22;;;10.11;71.61
7586;BME280;12459;42.646;23.292;2024-02-04T06:59:23;93813.66;;;9.19;68.62
7586;BME280;12459;42.646;23.292;2024-02-04T07:14:25;93779.44;;;8.75;68.39
7586;BME280;12459;42.646;23.292;2024-02-04T07:29:27;93997.91;;;10.26;68.31
7586;BME280;12459;42.646;23.292;2024-02-04T07:44:29;94082.50;;;11.03;66.37
7586;BME280;12459;42.646;23.292;2024-02-04T07:59:31;93926.13;;;9.88;64.31
7586;BME280;12459;42.646;23.292;2024-02-04T08:14:33;93705.75;;;8.81;62.61
7586;BME280;12459;42.646;23.292;2024-02-04T08:29:34;93801.25;;;10.19;60.83
7586;BME280;12459;42.646;23.292;2024-02-04T08:44:36;93997.47;;;11.48;61.32
7586;BME280;12459;42.646;23.292;2024-02-04T08:59:40;93942.44;;;10.81;62.99
7586;BME280;12459;42.646;23.292;2024-02-04T09:14:43;93918.66;;;10.32;64.56
7586;BME280;12459;42.646;23.292;2024-02-04T09:29:45;94059.59;;;11.47;65.00
7586;BME280;12459;42.646;23.292;2024-02-04T09:44:48;93967.69;;;10.87;64.25
7586;BME280;12459;42.646;23.292;2024-02-04T09:59:50;94016.63;;;11.50;64.23
7586;BME280;12459;42.646;23.292;2024-02-04T10:14:52;93729.28;;;10.29;62.82
7586;BME280;12459;42.646;23.292;2024-02-04T10:29:54;93884.66;;;10.77;64.00
7586;BME280;12459;42.646;23.292;2024-02-04T10:44:57;93630.03;;;9.05;65.10
7586;BME280;12459;42.646;23.292;2024-02-04T11:00:02;93976.28;;;11.13;65.75
7586;BME280;12459;42.646;23.292;2024-02-04T11:15:08;93730.38;;;9.86;65.73
7586;BME280;12459;42.646;23.292;2024-02-04T11:30:10;93809.81;;;10.55;65.32
7586;BME280;12459;42.646;23.292;2024-02-04T11:45:13;93997.00;;;11.95;65.34
7586;BME280;12459;42.646;23.292;2024-02-04T12:00:16;93845.00;;;11.36;65.08
7586;BME280;12459;42.646;23.292;2024-02-04T12:15:18;93723.97;;;10.66;64.72
7586;BME280;12459;42.646;23.292;2024-02-04T12:30:20;93802.59;;;10.90;63.67
7586;BME280;12459;42.646;23.292;2024-02-04T12:45:23;93852.47;;;11.56;62.76
7586;BME280;12459;42.646;23.292;2024-02-04T13:00:25;93848.63;;;11.57;61.55
7586;BME280;12459;42.646;23.292;2024-02-04T13:15:28;93975.03;;;12.64;62.08
7586;BME280;12459;42.646;23.292;2024-02-04T13:30:30;93765.66;;;11.05;61.17
7586;BME280;12459;42.646;23.292;2024-02-04T13:45:32;94094.50;;;12.63;62.11
7586;BME280;12459;42.646;23.292;2024-02-04T14:00:35;93834.94;;;11.10;62.76
7586;BME280;12459;42.646;23.292;2024-02-04T14:15:37;93927.25;;;11.54;62.88
7586;BME280;12459;42.646;23.292;2024-02-04T14:30:38;93501.47;;;8.92;62.61
7586;BME280;12459;42.646;23.292;2024-02-04T14:45:40;93758.66;;;10.43;63.77
7586;BME280;12459;42.646;23.292;2024-02-04T15:00:42;93886.81;;;10.93;65.09
7586;BME280;12459;42.646;23.292;2024-02-04T15:15:44;93805.66;;;10.88;64.99
7586;BME280;12459;42.646;23.292;2024-02-04T15:30:46;93879.16;;;10.95;65.70
7586;BME280;12459;42.646;23.292;2024-02-04T15:45:48;93882.56;;;10.54;66.60
7586;BME280;12459;42.646;23.292;2024-02-04T16:00:50;93721.84;;;9.50;66.65
7586;BME280;12459;42.646;23.292;2024-02-04T16:15:54;93945.25;;;10.67;68.03
7586;BME280;12459;42.646;23.292;2024-02-04T16:30:58;93854.22;;;10.57;62.46
7586;BME280;12459;42.646;23.292;2024-02-04T16:46:00;93729.22;;;10.36;60.49
7586;BME280;12459;42.646;23.292;2024-02-04T17:01:03;94009.19;;;11.20;61.45
7586;BME280;12459;42.646;23.292;2024-02-04T17:16:13;93733.28;;;10.06;61.76
7586;BME280;12459;42.646;23.292;2024-02-04T17:31:18;93683.09;;;9.10;62.55
7586;BME280;12459;42.646;23.292;2024-02-04T17:46:20;93913.13;;;11.08;62.60
7586;BME280;12459;42.646;23.292;2024-02-04T18:01:22;93976.53;;;11.29;60.71
7586;BME280;12459;42.646;23.292;2024-02-04T18:16:24;93931.47;;;10.65;61.59
7586;BME280;12459;42.646;23.292;2024-02-04T18:31:31;93954.66;;;10.90;62.51
7586;BME280;12459;42.646;23.292;2024-02-04T18:46:36;93840.88;;;9.87;63.83
7586;BME280;12459;42.646;23.292;2024-02-04T19:01:39;94038.09;;;10.99;64.43
7586;BME280;12459;42.646;23.292;2024-02-04T19:16:41;94140.84;;;11.47;62.46
7586;BME280;12459;42.646;23.292;2024-02-04T19:31:43;94130.78;;;11.62;61.42
7586;BME280;12459;42.646;23.292;2024-02-04T19:46:45;93704.22;;;8.87;59.12
7586;BME280;12459;42.646;23.292;2024-02-04T20:01:47;94068.38;;;10.96;60.06
7586;BME280;12459;42.646;23.292;2024-02-04T20:16:51;94034.03;;;11.28;58.70
7586;BME280;12459;42.646;23.292;2024-02-04T20:31:53;94126.22;;;11.56;57.54
7586;BME280;12459;42.646;23.292;2024-02-04T20:46:55;94089.50;;;11.42;58.42
7586;BME280;12459;42.646;23.292;2024-02-04T21:01:57;94011.97;;;10.51;58.92
7586;BME280;12459;42.646;23.292;2024-02-04T21:16:59;94029.28;;;10.98;58.21
7586;BME280;12459;42.646;23.292;2024-02-04T21:32:02;94052.03;;;11.76;57.42
7586;BME280;12459;42.646;23.292;2024-02-04T21:47:05;94086.06;;;11.90;56.26
7586;BME280;12459;42.646;23.292;2024-02-04T22:02:08;94051.78;;;12.04;55.30
7586;BME280;12459;42.646;23.292;2024-02-04T22:17:10;94063.34;;;11.98;56.33
7586;BME280;12459;42.646;23.292;2024-02-04T22:32:15;93943.06;;;11.44;55.59
7586;BME280;12459;42.646;23.292;2024-02-04T22:47:17;93538.47;;;8.98;52.64
7586;BME280;12459;42.646;23.292;2024-02-04T23:02:19;93905.97;;;11.32;54.46
7586;BME280;12459;42.646;23.292;2024-02-04T23:17:21;93932.28;;;11.48;55.28
7586;BME280;12459;42.646;23.292;2024-02-04T23:32:23;93850.81;;;11.31;54.14
7586;BME280;12459;42.646;23.292;2024-02-04T23:47:26;93876.50;;;11.29;55.12
